sensor_id;sensor_type;location;lat;lon;timestamp;pressure;altitude;pressure_sealevel;temperature;humidity
34241;BME280;20503;50.200;19.508;2023-05-28T00:02:23;68214.94;;;11.53;58.63
34241;BME280;20503;50.200;19.508;2023-05-28T00:07:31;68212.53;;;11.49;59.08
34241;BME280;20503;50.200;19.508;2023-05-28T00:12:38;68217.81;;;11.56;58.23
34241;BME280;20503;50.200;19.508;2023-05-28T00:17:45;68209.37;;;11.51;58.82
34241;BME280;20503;50.200;19.508;2023-05-28T00:22:52;68206.98;;;11.46;58.56
34241;BME280;20503;50.200;19.508;2023-05-28T00:28:00;68193.87;;;11.35;58.87
34241;BME280;20503;50.200;19.508;2023-05-28T00:33:07;68200.71;;;11.41;58.15
34241;BME280;20503;50.200;19.508;2023-05-28T00:38:15;68184.33;;;11.29;58.88
34241;BME280;20503;50.200;19.508;2023-05-28T00:43:22;68177.23;;;11.18;58.91
34241;BME280;20503;50.200;19.508;2023-05-28T00:48:30;68174.65;;;11.20;58.29
34241;BME280;20503;50.200;19.508;2023-05-28T00:53:37;68168.96;;;11.16;58.19
34241;BME280;20503;50.200;19.508;2023-05-28T00:58:44;68173.37;;;11.17;57.72
34241;BME280;20503;50.200;19.508;2023-05-28T01:03:52;68166.55;;;11.11;58.27
34241;BME280;20503;50.200;19.508;2023-05-28T01:08:59;68167.69;;;11.12;58.21
34241;BME280;20503;50.200;19.508;2023-05-28T01:14:07;68144.48;;;10.94;59.21
34241;BME280;20503;50.200;19.508;2023-05-28T01:19:17;68138.08;;;10.86;59.96
34241;BME280;20503;50.200;19.508;2023-05-28T01:24:22;68125.30;;;10.70;60.43
34241;BME280;20503;50.200;19.508;2023-05-28T01:29:29;68104.66;;;10.59;61.23
34241;BME280;20503;50.200;19.508;2023-05-28T01:34:36;68091.45;;;10.45;61.87
34241;BME280;20503;50.200;19.508;2023-05-28T01:39:45;68095.55;;;10.51;61.23
34241;BME280;20503;50.200;19.508;2023-05-28T01:44:52;68097.70;;;10.51;60.92
34241;BME280;20503;50.200;19.508;2023-05-28T01:49:59;68095.43;;;10.49;61.45
34241;BME280;20503;50.200;19.508;2023-05-28T01:55:06;68083.61;;;10.41;61.57
34241;BME280;20503;50.200;19.508;2023-05-28T02:00:14;68087.59;;;10.44;61.10
34241;BME280;20503;50.200;19.508;2023-05-28T02:05:21;68084.18;;;10.41;61.12
34241;BME280;20503;50.200;19.508;2023-05-28T02:10:28;68091.26;;;10.52;60.96
34241;BME280;20503;50.200;19.508;2023-05-28T02:15:36;68098.26;;;10.51;60.81
34241;BME280;20503;50.200;19.508;2023-05-28T02:20:43;68096.68;;;10.52;60.99
34241;BME280;20503;50.200;19.508;2023-05-28T02:25:51;68112.50;;;10.64;60.58
34241;BME280;20503;50.200;19.508;2023-05-28T02:30:58;68098.14;;;10.49;61.37
34241;BME280;20503;50.200;19.508;2023-05-28T02:36:07;68084.74;;;10.42;61.90
34241;BME280;20503;50.200;19.508;2023-05-28T02:41:13;68082.33;;;10.37;62.15
34241;BME280;20503;50.200;19.508;2023-05-28T02:46:21;68078.22;;;10.31;62.27
34241;BME280;20503;50.200;19.508;2023-05-28T02:51:28;68061.56;;;10.24;62.88
34241;BME280;20503;50.200;19.508;2023-05-28T02:56:36;68065.84;;;10.23;62.83
34241;BME280;20503;50.200;19.508;2023-05-28T03:01:43;68058.45;;;10.16;63.10
34241;BME280;20503;50.200;19.508;2023-05-28T03:06:51;68047.09;;;10.06;63.65
34241;BME280;20503;50.200;19.508;2023-05-28T03:11:58;68047.20;;;10.09;63.59
34241;BME280;20503;50.200;19.508;2023-05-28T03:17:05;68058.59;;;10.19;63.10
34241;BME280;20503;50.200;19.508;2023-05-28T03:22:13;68076.20;;;10.34;62.64
34241;BME280;20503;50.200;19.508;2023-05-28T03:27:20;68097.56;;;10.48;61.76
34241;BME280;20503;50.200;19.508;2023-05-28T03:32:28;68098.95;;;10.54;61.53
34241;BME280;20503;50.200;19.508;2023-05-28T03:37:35;68115.77;;;10.64;61.50
34241;BME280;20503;50.200;19.508;2023-05-28T03:42:43;68113.63;;;10.65;61.28
34241;BME280;20503;50.200;19.508;2023-05-28T03:47:50;68109.78;;;10.64;61.78
34241;BME280;20503;50.200;19.508;2023-05-28T03:52:58;68107.37;;;10.59;62.19
34241;BME280;20503;50.200;19.508;2023-05-28T03:58:05;68102.95;;;10.58;62.49
34241;BME280;20503;50.200;19.508;2023-05-28T04:03:14;68120.45;;;10.71;62.69
34241;BME280;20503;50.200;19.508;2023-05-28T04:08:21;68139.94;;;10.90;61.66
34241;BME280;20503;50.200;19.508;2023-05-28T04:13:28;68159.01;;;11.02;61.85
34241;BME280;20503;50.200;19.508;2023-05-28T04:18:36;68178.64;;;11.24;61.72
34241;BME280;20503;50.200;19.508;2023-05-28T04:23:43;68216.08;;;11.54;61.01
34241;BME280;20503;50.200;19.508;2023-05-28T04:28:51;68281.05;;;12.11;59.20
34241;BME280;20503;50.200;19.508;2023-05-28T04:33:58;68316.95;;;12.43;58.20
34241;BME280;20503;50.200;19.508;2023-05-28T04:39:06;68352.15;;;12.71;57.86
34241;BME280;20503;50.200;19.508;2023-05-28T04:44:14;68317.19;;;12.48;58.72
34241;BME280;20503;50.200;19.508;2023-05-28T04:49:22;68334.04;;;12.58;58.53
34241;BME280;20503;50.200;19.508;2023-05-28T04:54:30;68393.36;;;13.10;57.40
34241;BME280;20503;50.200;19.508;2023-05-28T04:59:38;68458.52;;;13.69;55.93
34241;BME280;20503;50.200;19.508;2023-05-28T05:04:46;68502.92;;;14.05;54.68
34241;BME280;20503;50.200;19.508;2023-05-28T05:09:54;68504.20;;;14.09;55.21
34241;BME280;20503;50.200;19.508;2023-05-28T05:15:04;68505.45;;;14.12;54.23
34241;BME280;20503;50.200;19.508;2023-05-28T05:20:10;68594.19;;;14.83;53.28
34241;BME280;20503;50.200;19.508;2023-05-28T05:25:18;68518.93;;;14.19;53.85
34241;BME280;20503;50.200;19.508;2023-05-28T05:30:25;68667.92;;;15.47;52.23
34241;BME280;20503;50.200;19.508;2023-05-28T05:35:33;68691.83;;;15.65;51.36
34241;BME280;20503;50.200;19.508;2023-05-28T05:40:41;68791.74;;;16.60;50.26
34241;BME280;20503;50.200;19.508;2023-05-28T05:45:48;68899.85;;;17.51;46.14
34241;BME280;20503;50.200;19.508;2023-05-28T05:50:56;69037.65;;;18.76;46.34
34241;BME280;20503;50.200;19.508;2023-05-28T05:56:10;68876.94;;;17.31;46.35
34241;BME280;20503;50.200;19.508;2023-05-28T06:01:16;68900.41;;;17.52;46.66
34241;BME280;20503;50.200;19.508;2023-05-28T06:06:19;68885.54;;;17.39;46.56
34241;BME280;20503;50.200;19.508;2023-05-28T06:11:26;69049.80;;;18.89;43.31
34241;BME280;20503;50.200;19.508;2023-05-28T06:16:34;69102.95;;;19.30;42.65
34241;BME280;20503;50.200;19.508;2023-05-28T06:21:41;69088.02;;;19.17;42.19
34241;BME280;20503;50.200;19.508;2023-05-28T06:26:48;69078.83;;;19.09;42.80
34241;BME280;20503;50.200;19.508;2023-05-28T06:31:56;69088.73;;;19.20;42.85
34241;BME280;20503;50.200;19.508;2023-05-28T06:37:04;69158.61;;;19.79;40.23
34241;BME280;20503;50.200;19.508;2023-05-28T06:42:11;69305.10;;;21.06;39.25
34241;BME280;20503;50.200;19.508;2023-05-28T06:47:18;69145.98;;;19.68;40.17
34241;BME280;20503;50.200;19.508;2023-05-28T06:52:26;69212.58;;;20.26;41.16
34241;BME280;20503;50.200;19.508;2023-05-28T06:57:33;69191.92;;;20.08;40.12
34241;BME280;20503;50.200;19.508;2023-05-28T07:02:41;69105.82;;;19.33;40.95
34241;BME280;20503;50.200;19.508;2023-05-28T07:07:48;69089.74;;;19.19;39.88
34241;BME280;20503;50.200;19.508;2023-05-28T07:12:55;69301.88;;;21.08;37.64
34241;BME280;20503;50.200;19.508;2023-05-28T07:18:02;69162.74;;;19.85;38.96
34241;BME280;20503;50.200;19.508;2023-05-28T07:23:09;69236.26;;;20.49;36.65
34241;BME280;20503;50.200;19.508;2023-05-28T07:28:19;69238.88;;;20.46;37.45
34241;BME280;20503;50.200;19.508;2023-05-28T07:33:26;69244.07;;;20.51;36.69
34241;BME280;20503;50.200;19.508;2023-05-28T07:38:33;69172.27;;;19.88;39.23
34241;BME280;20503;50.200;19.508;2023-05-28T07:43:40;69332.11;;;21.29;35.83
34241;BME280;20503;50.200;19.508;2023-05-28T07:48:49;69152.17;;;19.71;36.86
34241;BME280;20503;50.200;19.508;2023-05-28T07:53:55;69183.27;;;20.00;36.97
34241;BME280;20503;50.200;19.508;2023-05-28T07:59:02;69143.68;;;19.66;37.39
34241;BME280;20503;50.200;19.508;2023-05-28T08:04:09;69181.57;;;19.99;37.29
34241;BME280;20503;50.200;19.508;2023-05-28T08:09:17;69262.45;;;20.67;35.88
34241;BME280;20503;50.200;19.508;2023-05-28T08:14:24;69448.84;;;22.31;34.56
34241;BME280;20503;50.200;19.508;2023-05-28T08:19:31;69405.15;;;21.93;34.34
34241;BME280;20503;50.200;19.508;2023-05-28T08:24:39;69307.52;;;21.10;38.71
34241;BME280;20503;50.200;19.508;2023-05-28T08:29:46;69236.71;;;20.47;37.26
34241;BME280;20503;50.200;19.508;2023-05-28T08:34:53;69259.69;;;20.67;36.34
34241;BME280;20503;50.200;19.508;2023-05-28T08:40:01;69139.79;;;19.65;38.48
34241;BME280;20503;50.200;19.508;2023-05-28T08:45:09;69257.49;;;20.67;37.20
34241;BME280;20503;50.200;19.508;2023-05-28T08:50:16;69263.59;;;20.68;37.12
34241;BME280;20503;50.200;19.508;2023-05-28T08:55:23;69243.60;;;20.53;37.22
34241;BME280;20503;50.200;19.508;2023-05-28T09:00:30;69298.20;;;21.00;35.74
34241;BME280;20503;50.200;19.508;2023-05-28T09:05:38;69336.71;;;21.33;35.22
34241;BME280;20503;50.200;19.508;2023-05-28T09:10:45;69270.48;;;20.74;35.99
34241;BME280;20503;50.200;19.508;2023-05-28T09:15:53;69386.63;;;21.74;34.40
34241;BME280;20503;50.200;19.508;2023-05-28T09:21:00;69326.81;;;21.22;37.22
34241;BME280;20503;50.200;19.508;2023-05-28T09:26:09;69225.23;;;20.37;38.85
34241;BME280;20503;50.200;19.508;2023-05-28T09:31:14;69297.05;;;20.99;36.58
34241;BME280;20503;50.200;19.508;2023-05-28T09:36:21;69198.92;;;20.16;38.89
34241;BME280;20503;50.200;19.508;2023-05-28T09:41:29;69171.70;;;19.88;41.26
34241;BME280;20503;50.200;19.508;2023-05-28T09:46:36;69106.96;;;19.34;40.72
34241;BME280;20503;50.200;19.508;2023-05-28T09:51:44;69178.70;;;19.96;39.51
34241;BME280;20503;50.200;19.508;2023-05-28T09:56:52;69157.57;;;19.80;40.80
34241;BME280;20503;50.200;19.508;2023-05-28T10:02:17;69127.62;;;19.52;39.19
34241;BME280;20503;50.200;19.508;2023-05-28T10:07:20;69285.91;;;20.85;38.60
34241;BME280;20503;50.200;19.508;2023-05-28T10:12:26;69140.80;;;19.63;38.87
34241;BME280;20503;50.200;19.508;2023-05-28T10:17:29;69165.95;;;19.83;39.23
34241;BME280;20503;50.200;19.508;2023-05-28T10:22:31;69158.03;;;19.78;39.74
34241;BME280;20503;50.200;19.508;2023-05-28T10:27:37;69102.84;;;19.28;39.88
34241;BME280;20503;50.200;19.508;2023-05-28T10:32:43;69179.28;;;19.97;39.93
34241;BME280;20503;50.200;19.508;2023-05-28T10:43:03;69176.52;;;19.97;39.16
34241;BME280;20503;50.200;19.508;2023-05-28T10:48:06;69173.09;;;19.94;39.13
34241;BME280;20503;50.200;19.508;2023-05-28T10:53:17;69221.78;;;20.34;40.92
34241;BME280;20503;50.200;19.508;2023-05-28T10:58:27;69105.23;;;19.32;41.70
34241;BME280;20503;50.200;19.508;2023-05-28T11:03:38;69100.08;;;19.28;40.87
34241;BME280;20503;50.200;19.508;2023-05-28T11:08:46;69152.05;;;19.68;40.18
34241;BME280;20503;50.200;19.508;2023-05-28T11:13:49;69150.10;;;19.74;40.90
34241;BME280;20503;50.200;19.508;2023-05-28T11:24:05;69156.32;;;19.77;41.53
34241;BME280;20503;50.200;19.508;2023-05-28T11:29:07;69237.19;;;20.45;39.22
34241;BME280;20503;50.200;19.508;2023-05-28T11:34:14;69140.70;;;19.61;38.62
34241;BME280;20503;50.200;19.508;2023-05-28T11:39:21;69170.08;;;19.89;38.97
34241;BME280;20503;50.200;19.508;2023-05-28T11:44:29;69203.87;;;20.16;39.91
34241;BME280;20503;50.200;19.508;2023-05-28T11:49:37;69316.02;;;21.15;39.42
34241;BME280;20503;50.200;19.508;2023-05-28T11:54:47;69232.35;;;20.48;39.00
34241;BME280;20503;50.200;19.508;2023-05-28T11:59:59;69263.13;;;20.70;40.49
34241;BME280;20503;50.200;19.508;2023-05-28T12:05:02;69334.98;;;21.32;41.04
34241;BME280;20503;50.200;19.508;2023-05-28T12:10:09;69164.35;;;19.84;39.86
34241;BME280;20503;50.200;19.508;2023-05-28T12:15:16;69161.47;;;19.81;40.53
34241;BME280;20503;50.200;19.508;2023-05-28T12:20:33;69169.40;;;19.86;40.92
34241;BME280;20503;50.200;19.508;2023-05-28T12:25:48;69161.37;;;19.79;40.12
34241;BME280;20503;50.200;19.508;2023-05-28T12:30:48;69280.39;;;20.85;39.00
34241;BME280;20503;50.200;19.508;2023-05-28T12:35:51;69311.30;;;21.09;38.93
34241;BME280;20503;50.200;19.508;2023-05-28T12:40:53;69234.88;;;20.43;41.53
34241;BME280;20503;50.200;19.508;2023-05-28T12:46:00;69235.91;;;20.41;38.94
34241;BME280;20503;50.200;19.508;2023-05-28T12:51:08;69246.58;;;20.58;39.26
34241;BME280;20503;50.200;19.508;2023-05-28T12:56:15;69251.66;;;20.60;40.81
34241;BME280;20503;50.200;19.508;2023-05-28T13:01:22;69284.52;;;20.91;40.44
34241;BME280;20503;50.200;19.508;2023-05-28T13:06:30;69322.80;;;21.19;38.68
34241;BME280;20503;50.200;19.508;2023-05-28T13:11:41;69412.63;;;21.99;39.49
34241;BME280;20503;50.200;19.508;2023-05-28T13:16:45;69244.74;;;20.54;40.67
34241;BME280;20503;50.200;19.508;2023-05-28T13:21:53;69204.34;;;20.14;39.39
34241;BME280;20503;50.200;19.508;2023-05-28T13:27:00;69252.80;;;20.61;40.34
34241;BME280;20503;50.200;19.508;2023-05-28T13:32:08;69229.26;;;20.40;40.44
34241;BME280;20503;50.200;19.508;2023-05-28T13:37:15;69219.95;;;20.30;39.37
34241;BME280;20503;50.200;19.508;2023-05-28T13:42:23;69275.20;;;20.80;39.72
34241;BME280;20503;50.200;19.508;2023-05-28T13:47:31;69270.02;;;20.76;39.95
34241;BME280;20503;50.200;19.508;2023-05-28T13:52:38;69189.16;;;20.08;40.99
34241;BME280;20503;50.200;19.508;2023-05-28T13:57:47;69233.16;;;20.41;41.75
34241;BME280;20503;50.200;19.508;2023-05-28T14:02:53;69293.50;;;20.94;41.77
34241;BME280;20503;50.200;19.508;2023-05-28T14:08:01;69251.66;;;20.60;39.82
34241;BME280;20503;50.200;19.508;2023-05-28T14:13:11;69202.82;;;20.17;41.75
34241;BME280;20503;50.200;19.508;2023-05-28T14:18:16;69378.58;;;21.67;41.11
34241;BME280;20503;50.200;19.508;2023-05-28T14:23:24;69330.38;;;21.28;42.47
34241;BME280;20503;50.200;19.508;2023-05-28T14:28:31;69217.88;;;20.33;42.82
34241;BME280;20503;50.200;19.508;2023-05-28T14:33:39;69265.88;;;20.70;42.10
34241;BME280;20503;50.200;19.508;2023-05-28T14:38:46;69283.83;;;20.88;42.50
34241;BME280;20503;50.200;19.508;2023-05-28T14:43:54;69297.63;;;21.00;42.12
34241;BME280;20503;50.200;19.508;2023-05-28T14:49:02;69365.00;;;21.60;42.59
34241;BME280;20503;50.200;19.508;2023-05-28T14:54:09;69256.13;;;20.61;41.85
34241;BME280;20503;50.200;19.508;2023-05-28T14:59:18;69198.92;;;20.16;43.41
34241;BME280;20503;50.200;19.508;2023-05-28T15:04:24;69215.80;;;20.24;42.53
34241;BME280;20503;50.200;19.508;2023-05-28T15:09:32;69239.02;;;20.49;41.18
34241;BME280;20503;50.200;19.508;2023-05-28T15:14:40;69150.00;;;19.71;43.27
34241;BME280;20503;50.200;19.508;2023-05-28T15:19:48;69141.15;;;19.59;43.43
34241;BME280;20503;50.200;19.508;2023-05-28T15:24:55;69119.93;;;19.40;42.01
34241;BME280;20503;50.200;19.508;2023-05-28T15:30:07;69183.63;;;19.96;44.31
34241;BME280;20503;50.200;19.508;2023-05-28T15:35:11;69193.52;;;20.07;43.76
34241;BME280;20503;50.200;19.508;2023-05-28T15:40:18;69156.20;;;19.74;44.88
34241;BME280;20503;50.200;19.508;2023-05-28T15:45:25;69116.71;;;19.42;43.33
34241;BME280;20503;50.200;19.508;2023-05-28T15:50:33;69096.63;;;19.25;44.40
34241;BME280;20503;50.200;19.508;2023-05-28T15:55:41;69111.66;;;19.40;45.48
34241;BME280;20503;50.200;19.508;2023-05-28T16:00:53;69140.25;;;19.63;44.69
34241;BME280;20503;50.200;19.508;2023-05-28T16:05:56;69149.20;;;19.66;44.68
34241;BME280;20503;50.200;19.508;2023-05-28T16:11:05;69133.13;;;19.52;46.29
34241;BME280;20503;50.200;19.508;2023-05-28T16:16:12;69100.31;;;19.33;45.83
34241;BME280;20503;50.200;19.508;2023-05-28T16:21:21;69090.89;;;19.20;46.71
34241;BME280;20503;50.200;19.508;2023-05-28T16:26:28;69114.30;;;19.38;47.33
34241;BME280;20503;50.200;19.508;2023-05-28T16:31:36;69136.10;;;19.57;46.84
34241;BME280;20503;50.200;19.508;2023-05-28T16:36:45;69076.63;;;19.10;46.22
34241;BME280;20503;50.200;19.508;2023-05-28T16:41:50;69085.14;;;19.15;47.39
34241;BME280;20503;50.200;19.508;2023-05-28T16:46:58;69062.77;;;18.96;47.14
34241;BME280;20503;50.200;19.508;2023-05-28T16:56:40;69053.94;;;18.83;47.70
34241;BME280;20503;50.200;19.508;2023-05-28T17:01:47;69063.45;;;18.98;47.70
34241;BME280;20503;50.200;19.508;2023-05-28T17:06:56;69062.53;;;18.91;47.65
34241;BME280;20503;50.200;19.508;2023-05-28T17:12:03;69040.40;;;18.76;48.70
34241;BME280;20503;50.200;19.508;2023-05-28T17:17:10;69011.15;;;18.51;49.50
34241;BME280;20503;50.200;19.508;2023-05-28T17:22:18;69016.31;;;18.55;50.02
34241;BME280;20503;50.200;19.508;2023-05-28T17:27:26;69004.28;;;18.45;49.67
34241;BME280;20503;50.200;19.508;2023-05-28T17:32:34;69007.16;;;18.47;49.48
34241;BME280;20503;50.200;19.508;2023-05-28T17:37:41;68986.06;;;18.31;49.93
34241;BME280;20503;50.200;19.508;2023-05-28T17:42:49;68966.31;;;18.09;50.73
34241;BME280;20503;50.200;19.508;2023-05-28T17:47:57;68939.62;;;17.91;51.04
34241;BME280;20503;50.200;19.508;2023-05-28T17:53:05;68922.76;;;17.71;52.09
34241;BME280;20503;50.200;19.508;2023-05-28T17:58:13;68922.08;;;17.68;52.55
34241;BME280;20503;50.200;19.508;2023-05-28T18:03:20;68895.39;;;17.50;52.79
34241;BME280;20503;50.200;19.508;2023-05-28T18:08:28;68878.53;;;17.30;53.27
34241;BME280;20503;50.200;19.508;2023-05-28T18:13:36;68855.61;;;17.10;54.25
34241;BME280;20503;50.200;19.508;2023-05-28T18:18:44;68828.05;;;16.96;54.70
34241;BME280;20503;50.200;19.508;2023-05-28T18:23:52;68812.80;;;16.76;55.02
34241;BME280;20503;50.200;19.508;2023-05-28T18:29:00;68795.06;;;16.60;55.69
34241;BME280;20503;50.200;19.508;2023-05-28T18:34:07;68769.99;;;16.41;55.98
34241;BME280;20503;50.200;19.508;2023-05-28T18:39:15;68744.81;;;16.19;56.40
34241;BME280;20503;50.200;19.508;2023-05-28T18:44:23;68736.79;;;16.12;57.08
34241;BME280;20503;50.200;19.508;2023-05-28T18:49:31;68728.79;;;16.05;56.59
34241;BME280;20503;50.200;19.508;2023-05-28T18:54:39;68723.51;;;15.98;56.43
34241;BME280;20503;50.200;19.508;2023-05-28T18:59:47;68705.92;;;15.85;56.62
34241;BME280;20503;50.200;19.508;2023-05-28T19:04:55;68694.48;;;15.75;56.71
34241;BME280;20503;50.200;19.508;2023-05-28T19:10:05;68701.67;;;15.76;56.75
34241;BME280;20503;50.200;19.508;2023-05-28T19:15:11;68693.79;;;15.72;56.75
34241;BME280;20503;50.200;19.508;2023-05-28T19:20:19;68696.65;;;15.74;56.12
34241;BME280;20503;50.200;19.508;2023-05-28T19:25:28;68681.33;;;15.63;56.12
34241;BME280;20503;50.200;19.508;2023-05-28T19:30:35;68668.18;;;15.52;55.70
34241;BME280;20503;50.200;19.508;2023-05-28T19:35:43;68664.77;;;15.49;55.39
34241;BME280;20503;50.200;19.508;2023-05-28T19:40:51;68664.63;;;15.46;56.83
34241;BME280;20503;50.200;19.508;2023-05-28T19:45:59;68654.33;;;15.37;60.37
34241;BME280;20503;50.200;19.508;2023-05-28T19:51:07;68621.41;;;15.13;60.54
34241;BME280;20503;50.200;19.508;2023-05-28T19:56:15;68591.59;;;14.85;63.38
34241;BME280;20503;50.200;19.508;2023-05-28T20:01:23;68560.60;;;14.56;64.83
34241;BME280;20503;50.200;19.508;2023-05-28T20:06:31;68535.48;;;14.34;67.26
34241;BME280;20503;50.200;19.508;2023-05-28T20:11:39;68505.65;;;14.05;69.93
34241;BME280;20503;50.200;19.508;2023-05-28T20:16:47;68481.23;;;13.86;69.23
34241;BME280;20503;50.200;19.508;2023-05-28T20:21:55;68456.23;;;13.67;71.91
34241;BME280;20503;50.200;19.508;2023-05-28T20:27:06;68428.03;;;13.37;72.65
34241;BME280;20503;50.200;19.508;2023-05-28T20:32:11;68418.45;;;13.31;73.15
34241;BME280;20503;50.200;19.508;2023-05-28T20:37:19;68425.31;;;13.37;71.27
34241;BME280;20503;50.200;19.508;2023-05-28T20:42:27;68452.24;;;13.63;69.08
34241;BME280;20503;50.200;19.508;2023-05-28T20:47:36;68517.34;;;14.20;63.01
34241;BME280;20503;50.200;19.508;2023-05-28T20:52:44;68565.75;;;14.60;58.04
34241;BME280;20503;50.200;19.508;2023-05-28T20:57:52;68609.29;;;15.01;56.42
34241;BME280;20503;50.200;19.508;2023-05-28T21:03:00;68622.19;;;15.07;55.92
34241;BME280;20503;50.200;19.508;2023-05-28T21:08:08;68622.19;;;15.07;56.43
34241;BME280;20503;50.200;19.508;2023-05-28T21:13:16;68614.44;;;15.05;57.18
34241;BME280;20503;50.200;19.508;2023-05-28T21:18:25;68617.86;;;15.08;57.12
34241;BME280;20503;50.200;19.508;2023-05-28T21:23:32;68601.86;;;14.94;57.87
34241;BME280;20503;50.200;19.508;2023-05-28T21:28:41;68590.18;;;14.79;59.03
34241;BME280;20503;50.200;19.508;2023-05-28T21:33:48;68576.73;;;14.72;59.51
34241;BME280;20503;50.200;19.508;2023-05-28T21:38:56;68586.31;;;14.78;59.50
34241;BME280;20503;50.200;19.508;2023-05-28T21:44:04;68595.91;;;14.84;59.58
34241;BME280;20503;50.200;19.508;2023-05-28T21:49:12;68588.72;;;14.83;59.68
34241;BME280;20503;50.200;19.508;2023-05-28T21:54:21;68581.74;;;14.74;59.95
34241;BME280;20503;50.200;19.508;2023-05-28T21:59:31;68582.88;;;14.75;59.86
34241;BME280;20503;50.200;19.508;2023-05-28T22:04:37;68568.29;;;14.67;60.19
34241;BME280;20503;50.200;19.508;2023-05-28T22:09:45;68566.89;;;14.61;60.64
34241;BME280;20503;50.200;19.508;2023-05-28T22:14:54;68560.15;;;14.58;61.11
34241;BME280;20503;50.200;19.508;2023-05-28T22:20:01;68553.89;;;14.52;61.49
34241;BME280;20503;50.200;19.508;2023-05-28T22:25:09;68544.63;;;14.42;61.87
34241;BME280;20503;50.200;19.508;2023-05-28T22:30:17;68540.63;;;14.38;62.23
34241;BME280;20503;50.200;19.508;2023-05-28T22:35:26;68532.20;;;14.33;62.38
34241;BME280;20503;50.200;19.508;2023-05-28T22:40:33;68526.47;;;14.28;62.83
34241;BME280;20503;50.200;19.508;2023-05-28T22:45:41;68530.34;;;14.29;63.21
34241;BME280;20503;50.200;19.508;2023-05-28T22:50:49;68514.16;;;14.22;63.74
34241;BME280;20503;50.200;19.508;2023-05-28T22:55:57;68512.76;;;14.16;63.98
34241;BME280;20503;50.200;19.508;2023-05-28T23:01:05;68512.76;;;14.16;63.62
34241;BME280;20503;50.200;19.508;2023-05-28T23:06:13;68523.49;;;14.23;63.22
34241;BME280;20503;50.200;19.508;2023-05-28T23:11:21;68521.91;;;14.24;63.24
34241;BME280;20503;50.200;19.508;2023-05-28T23:16:30;68512.20;;;14.16;63.82
34241;BME280;20503;50.200;19.508;2023-05-28T23:21:38;68520.52;;;14.18;63.80
34241;BME280;20503;50.200;19.508;2023-05-28T23:26:47;68518.93;;;14.19;63.86
34241;BME280;20503;50.200;19.508;2023-05-28T23:31:54;68510.45;;;14.14;63.98
34241;BME280;20503;50.200;19.508;2023-05-28T23:37:02;68517.34;;;14.20;63.77
34241;BME280;20503;50.200;19.508;2023-05-28T23:42:10;68523.25;;;14.18;63.64
34241;BME280;20503;50.200;19.508;2023-05-28T23:47:18;68514.92;;;14.16;63.68
34241;BME280;20503;50.200;19.508;2023-05-28T23:52:26;68512.04;;;14.13;63.53
34241;BME280;20503;50.200;19.508;2023-05-28T23:57:34;68515.48;;;14.16;63.36
